Time;durP1;ratioP1;P1;durP2;ratioP2;P2;SDS_P1;SDS_P2;PMS_P1;PMS_P2;Temp;Humidity;BMP_temperature;BMP_pressure;BME280_temperature;BME280_humidity;BME280_pressure;Samples;Min_cycle;Max_cycle;Signal;HPM_P1;HPM_P2
2022/06/04 00:00:17;;;;;;;;;;;;;;;26.60;53.63;98852.53;2082153;28;19971;-52
2022/06/04 00:01:18;;;;;;;;;;;;;;;26.62;54.04;98842.22;2083792;28;19928;-54
2022/06/04 00:02:19;;;;;;;;;;;;;;;26.62;53.65;98844.94;2081353;28;19929;-54
2022/06/04 00:03:20;;;;;;;;;;;;;;;26.61;53.95;98840.59;2082244;28;19928;-53
2022/06/04 00:04:23;;;;;;;;;;;;;;;26.61;53.97;98840.59;2082494;28;19929;-55
2022/06/04 00:05:25;;;;;;;;;;;;;;;26.61;53.74;98835.97;2082308;28;20338;-54
2022/06/04 00:06:26;;;;;;;;;;;;;;;26.61;54.02;98843.31;2081222;28;19960;-53
2022/06/04 00:07:28;;;;;;;;;;;;;;;26.59;54.10;98842.75;2083013;28;20847;-53
2022/06/04 00:08:29;;;;;;;;;;;;;;;26.60;54.07;98845.19;2081285;28;19929;-54
2022/06/04 00:09:31;;;;;;;;;;;;;;;26.62;53.80;98844.94;2082704;28;19929;-52
2022/06/04 00:15:52;;;;;;;;;;;;;;;26.61;54.04;98854.19;2080858;28;19929;-51
2022/06/04 00:16:53;;;;;;;;;;;;;;;26.60;54.00;98858.78;2084182;28;19943;-54
2022/06/04 00:17:55;;;;;;;;;;;;;;;26.59;53.89;98853.63;2083959;28;19929;-52
2022/06/04 00:18:58;;;;;;;;;;;;;;;26.59;54.11;98853.63;2081597;28;19929;-54
2022/06/04 00:20:02;;;;;;;;;;;;;;;26.58;53.86;98854.66;2083718;28;19944;-54
2022/06/04 00:21:03;;;;;;;;;;;;;;;26.58;53.89;98854.66;2082779;28;19929;-54
2022/06/04 00:22:06;;;;;;;;;;;;;;;26.59;53.99;98853.63;2081985;28;19935;-54
2022/06/04 00:23:07;;;;;;;;;;;;;;;26.60;54.22;98849.81;2082729;28;19928;-54
2022/06/04 00:24:09;;;;;;;;;;;;;;;26.59;54.29;98859.06;2082284;28;19929;-54
2022/06/04 00:25:10;;;;;;;;;;;;;;;26.59;54.18;98859.06;2079585;28;19954;-55
2022/06/04 00:26:13;;;;;;;;;;;;;;;26.59;54.17;98856.34;2083727;28;19929;-51
2022/06/04 00:27:14;;;;;;;;;;;;;;;26.59;53.80;98854.44;2083168;28;20467;-53
2022/06/04 00:28:17;;;;;;;;;;;;;;;26.59;54.26;98850.91;2080329;28;20494;-53
2022/06/04 00:29:19;;;;;;;;;;;;;;;26.59;54.30;98850.91;2080255;28;19933;-55
2022/06/04 00:30:21;;;;;;;;;;;;;;;26.60;53.80;98852.53;2084159;28;19928;-54
2022/06/04 00:31:22;;;;;;;;;;;;;;;26.61;54.22;98849.56;2081650;28;19936;-52
2022/06/04 00:32:23;;;;;;;;;;;;;;;26.58;54.30;98846.50;2084155;28;20925;-51
2022/06/04 00:33:25;;;;;;;;;;;;;;;26.58;54.16;98843.78;2082625;28;20878;-54
2022/06/04 00:34:26;;;;;;;;;;;;;;;26.57;54.29;98844.88;2084209;28;19936;-54
2022/06/04 00:35:29;;;;;;;;;;;;;;;26.56;53.81;98837.81;2085117;28;19963;-54
2022/06/04 00:36:31;;;;;;;;;;;;;;;26.56;53.92;98843.25;2085503;28;20387;-50
2022/06/04 00:37:33;;;;;;;;;;;;;;;26.56;53.94;98843.25;2082247;28;20726;-54
2022/06/04 00:38:35;;;;;;;;;;;;;;;26.55;54.36;98836.97;2084286;28;19929;-52
2022/06/04 00:39:35;;;;;;;;;;;;;;;26.56;54.32;98835.91;2084016;28;19929;-53
2022/06/04 00:40:43;;;;;;;;;;;;;;;26.56;53.94;98840.53;2083782;28;20008;-51
2022/06/04 00:41:46;;;;;;;;;;;;;;;26.55;54.34;98836.97;2083801;28;19929;-54
2022/06/04 00:42:48;;;;;;;;;;;;;;;26.56;54.04;98840.53;2084928;28;20235;-54
2022/06/04 00:43:57;;;;;;;;;;;;;;;26.55;54.00;98836.97;2084317;28;20983;-54
2022/06/04 00:45:17;;;;;;;;;;;;;;;26.54;54.05;98835.31;2084831;28;20954;-51
2022/06/04 00:46:33;;;;;;;;;;;;;;;26.55;54.29;98830.69;2082120;28;19932;-54
2022/06/04 00:47:36;;;;;;;;;;;;;;;26.55;54.38;98836.13;2083011;28;20501;-53
2022/06/04 00:48:36;;;;;;;;;;;;;;;26.53;53.97;98830.97;2084048;28;19936;-53
2022/06/04 00:49:38;;;;;;;;;;;;;;;26.54;54.34;98829.88;2084626;28;19935;-51
2022/06/04 00:50:40;;;;;;;;;;;;;;;26.56;54.31;98835.09;2084615;28;20399;-60
2022/06/04 00:51:43;;;;;;;;;;;;;;;26.56;53.88;98838.63;2086678;28;20590;-54
2022/06/04 00:52:46;;;;;;;;;;;;;;;26.56;54.16;98838.63;2075689;28;20059;-54
2022/06/04 00:53:46;;;;;;;;;;;;;;;26.56;54.32;98843.25;2083941;28;19936;-56
2022/06/04 00:54:51;;;;;;;;;;;;;;;26.57;54.21;98834.00;2081388;28;19967;-52
2022/06/04 00:55:55;;;;;;;;;;;;;;;26.56;53.88;98829.63;2084326;28;20015;-55
2022/06/04 00:57:03;;;;;;;;;;;;;;;26.54;53.98;98827.16;2085503;28;19933;-58
2022/06/04 00:58:18;;;;;;;;;;;;;;;26.54;53.98;98827.16;2084995;28;19928;-52
2022/06/04 00:59:27;;;;;;;;;;;;;;;26.55;53.89;98830.69;2085478;28;19955;-57
2022/06/04 01:00:30;;;;;;;;;;;;;;;26.55;54.15;98826.09;2084213;28;19952;-55
2022/06/04 01:01:34;;;;;;;;;;;;;;;26.54;53.93;98823.63;2084783;28;20387;-56
2022/06/04 01:02:40;;;;;;;;;;;;;;;26.53;54.26;98822.81;2084968;28;19928;-55
2022/06/04 01:03:47;;;;;;;;;;;;;;;26.52;54.11;98821.97;2082673;28;19929;-55
2022/06/04 01:04:55;;;;;;;;;;;;;;;26.51;54.02;98809.44;2084467;28;20218;-56
2022/06/04 01:06:06;;;;;;;;;;;;;;;26.50;54.40;98815.97;2083954;28;19947;-55
2022/06/04 01:07:10;;;;;;;;;;;;;;;26.50;54.34;98818.69;2084684;28;20561;-55
2022/06/04 01:08:26;;;;;;;;;;;;;;;26.52;54.45;98821.97;2085399;28;19928;-54
2022/06/04 01:09:40;;;;;;;;;;;;;;;26.53;54.00;98822.81;2083952;28;19935;-54
2022/06/04 01:10:47;;;;;;;;;;;;;;;26.52;54.01;98832.00;2084884;28;20471;-58
2022/06/04 01:12:11;;;;;;;;;;;;;;;26.52;54.49;98826.56;2084568;28;20026;-54
2022/06/04 01:13:20;;;;;;;;;;;;;;;26.53;54.42;98825.53;2080947;28;20299;-51
2022/06/04 01:14:28;;;;;;;;;;;;;;;26.52;54.41;98827.44;2085368;28;19928;-54
2022/06/04 01:15:33;;;;;;;;;;;;;;;26.51;54.23;98820.31;2085682;28;19940;-55
2022/06/04 01:16:39;;;;;;;;;;;;;;;26.51;54.36;98817.59;2084316;28;19932;-54
2022/06/04 01:17:48;;;;;;;;;;;;;;;26.51;54.00;98820.31;2083603;28;19951;-54
2022/06/04 01:19:01;;;;;;;;;;;;;;;26.51;53.99;98817.59;2084248;28;20003;-53
2022/06/04 01:20:07;;;;;;;;;;;;;;;26.50;54.25;98813.25;2084340;28;19928;-54
2022/06/04 01:21:17;;;;;;;;;;;;;;;26.49;54.16;98814.28;2084405;28;19936;-55
2022/06/04 01:22:27;;;;;;;;;;;;;;;26.51;53.99;98820.31;2084542;28;19936;-55
2022/06/04 01:23:59;;;;;;;;;;;;;;;26.50;54.29;98818.69;2081305;28;19994;-55
2022/06/04 01:25:12;;;;;;;;;;;;;;;26.50;54.21;98818.69;2084894;28;19936;-54
2022/06/04 01:26:22;;;;;;;;;;;;;;;26.51;54.04;98823.03;2084290;28;19928;-52
2022/06/04 01:27:27;;;;;;;;;;;;;;;26.52;53.94;98821.97;2084087;28;20023;-52
2022/06/04 01:28:28;;;;;;;;;;;;;;;26.51;54.45;98816.78;2083153;28;20569;-54
2022/06/04 01:29:32;;;;;;;;;;;;;;;26.50;54.48;98826.84;2080784;28;19978;-54
2022/06/04 01:30:36;;;;;;;;;;;;;;;26.49;54.37;98821.63;2084267;28;20827;-55
2022/06/04 01:31:41;;;;;;;;;;;;;;;26.48;54.35;98822.69;2082934;28;20032;-53
2022/06/04 01:32:44;;;;;;;;;;;;;;;26.51;54.13;98831.19;2082276;28;20806;-54
2022/06/04 01:33:49;;;;;;;;;;;;;;;26.49;54.39;98836.06;2083093;28;19929;-54
2022/06/04 01:34:52;;;;;;;;;;;;;;;26.49;54.48;98838.78;2084333;28;20452;-53
2022/06/04 01:35:57;;;;;;;;;;;;;;;26.50;54.36;98845.88;2083577;28;19939;-52
2022/06/04 01:37:00;;;;;;;;;;;;;;;26.49;54.09;98836.06;2085751;28;20282;-54
2022/06/04 01:38:04;;;;;;;;;;;;;;;26.49;54.25;98838.78;2085188;28;20370;-55
2022/06/04 01:39:08;;;;;;;;;;;;;;;26.49;54.39;98838.78;2083455;28;19940;-53
2022/06/04 01:41:37;;;;;;;;;;;;;;;26.49;54.42;98835.22;2083728;28;20003;-54
2022/06/04 01:42:39;;;;;;;;;;;;;;;26.50;54.14;98845.03;2084941;28;19936;-56
2022/06/04 01:43:43;;;;;;;;;;;;;;;26.48;54.08;98834.38;2084389;28;19929;-54
2022/06/04 01:44:45;;;;;;;;;;;;;;;26.47;54.26;98835.47;2082983;28;19929;-53
2022/06/04 01:45:47;;;;;;;;;;;;;;;26.48;54.25;98839.00;2085142;28;19928;-54
2022/06/04 01:46:51;;;;;;;;;;;;;;;26.47;54.20;98824.59;2083745;28;20988;-53
2022/06/04 01:47:55;;;;;;;;;;;;;;;26.46;54.47;98825.66;2084930;28;20454;-55
2022/06/04 01:48:57;;;;;;;;;;;;;;;26.46;54.20;98820.22;2083423;28;20448;-55
2022/06/04 01:50:00;;;;;;;;;;;;;;;26.46;54.48;98814.78;2082434;28;19929;-53
2022/06/04 01:51:03;;;;;;;;;;;;;;;26.46;54.50;98811.22;2083576;28;20216;-52
2022/06/04 01:52:08;;;;;;;;;;;;;;;26.45;54.65;98809.59;2086335;28;19935;-55
2022/06/04 01:53:10;;;;;;;;;;;;;;;26.45;54.57;98812.31;2083889;28;19940;-54
2022/06/04 01:54:14;;;;;;;;;;;;;;;26.45;54.26;98818.56;2085618;28;20290;-53
2022/06/04 01:55:16;;;;;;;;;;;;;;;26.47;54.50;98831.94;2086886;28;19936;-55
2022/06/04 01:56:21;;;;;;;;;;;;;;;26.46;54.56;98833.81;2085498;28;20020;-55
2022/06/04 01:57:25;;;;;;;;;;;;;;;26.49;54.46;98843.38;2082805;28;21143;-55
2022/06/04 01:58:29;;;;;;;;;;;;;;;26.46;54.48;98841.97;2086236;28;20305;-54
2022/06/04 01:59:32;;;;;;;;;;;;;;;26.48;54.32;98847.19;2086647;28;20405;-53
2022/06/04 02:00:36;;;;;;;;;;;;;;;26.48;54.37;98836.28;2085512;28;19937;-55
2022/06/04 02:01:38;;;;;;;;;;;;;;;26.47;54.44;98837.38;2084184;28;19963;-54
2022/06/04 02:02:40;;;;;;;;;;;;;;;26.47;54.41;98838.19;2084415;28;20383;-51
2022/06/04 02:03:46;;;;;;;;;;;;;;;26.46;54.54;98841.16;2083438;28;19932;-56
2022/06/04 02:04:50;;;;;;;;;;;;;;;26.46;54.41;98836.53;2084223;28;19929;-54
2022/06/04 02:05:55;;;;;;;;;;;;;;;26.46;54.09;98844.69;2083563;28;20299;-51
2022/06/04 02:08:31;;;;;;;;;;;;;;;26.47;54.49;98840.09;2084593;28;19933;-53
2022/06/04 02:09:33;;;;;;;;;;;;;;;26.48;54.55;98841.72;2084879;28;19928;-52
2022/06/04 02:10:37;;;;;;;;;;;;;;;26.45;54.57;98843.06;2086165;28;19992;-54
2022/06/04 02:11:39;;;;;;;;;;;;;;;26.45;54.12;98845.78;2084395;28;19928;-54
2022/06/04 02:12:43;;;;;;;;;;;;;;;26.47;54.59;98840.09;2083330;28;19929;-53
2022/06/04 02:13:46;;;;;;;;;;;;;;;26.46;54.05;98833.81;2082666;28;20509;-53
2022/06/04 02:14:48;;;;;;;;;;;;;;;26.46;54.50;98833.81;2085395;28;20386;-53
2022/06/04 02:15:51;;;;;;;;;;;;;;;26.45;54.19;98832.19;2072660;28;19929;-52
2022/06/04 02:16:54;;;;;;;;;;;;;;;26.44;54.06;98838.69;2080201;28;20388;-50
2022/06/04 02:17:57;;;;;;;;;;;;;;;26.45;54.17;98831.34;2082864;28;19935;-52
2022/06/04 02:19:00;;;;;;;;;;;;;;;26.45;54.58;98834.09;2082975;28;21252;-50
2022/06/04 02:20:00;;;;;;;;;;;;;;;26.45;54.36;98834.91;2082876;28;19928;-53
2022/06/04 02:21:02;;;;;;;;;;;;;;;26.47;54.41;98835.47;2083944;28;20433;-51
2022/06/04 02:22:03;;;;;;;;;;;;;;;26.47;54.53;98840.91;2079406;28;19939;-51
2022/06/04 02:23:05;;;;;;;;;;;;;;;26.46;54.42;98835.72;2083423;28;19929;-53
2022/06/04 02:24:06;;;;;;;;;;;;;;;26.45;54.51;98843.06;2083687;28;19928;-55
2022/06/04 02:25:09;;;;;;;;;;;;;;;26.47;54.42;98838.19;2080580;28;19932;-54
2022/06/04 02:26:11;;;;;;;;;;;;;;;26.47;54.17;98831.94;2083300;28;19932;-53
2022/06/04 02:27:12;;;;;;;;;;;;;;;26.46;54.55;98844.69;2082479;28;19936;-53
2022/06/04 02:28:15;;;;;;;;;;;;;;;26.44;54.13;98837.84;2082839;28;19933;-53
2022/06/04 02:29:16;;;;;;;;;;;;;;;26.44;54.41;98838.69;2080262;28;19936;-55
2022/06/04 02:30:18;;;;;;;;;;;;;;;26.48;54.16;98844.44;2083806;28;19957;-52
2022/06/04 02:31:24;;;;;;;;;;;;;;;26.46;54.26;98844.69;2083019;28;20375;-52
2022/06/04 02:32:30;;;;;;;;;;;;;;;26.44;54.14;98841.41;2084790;28;19929;-53
2022/06/04 02:33:36;;;;;;;;;;;;;;;26.45;54.50;98848.50;2084773;28;19971;-55
2022/06/04 02:34:41;;;;;;;;;;;;;;;26.44;54.61;98841.41;2081114;28;20511;-50
2022/06/04 02:35:46;;;;;;;;;;;;;;;26.43;54.29;98839.75;2083696;28;19936;-50
2022/06/04 02:36:52;;;;;;;;;;;;;;;26.42;54.30;98838.13;2083478;28;19928;-53
2022/06/04 02:37:57;;;;;;;;;;;;;;;26.44;54.65;98844.13;2083433;28;19929;-54
2022/06/04 02:39:01;;;;;;;;;;;;;;;26.45;54.58;98837.63;2083798;28;20039;-54
2022/06/04 02:40:07;;;;;;;;;;;;;;;26.45;54.48;98840.34;2083463;28;20375;-53
2022/06/04 02:41:10;;;;;;;;;;;;;;;26.44;54.34;98835.13;2082462;28;20533;-53
2022/06/04 02:42:14;;;;;;;;;;;;;;;26.46;54.21;98839.25;2084048;28;19929;-53
2022/06/04 02:43:19;;;;;;;;;;;;;;;26.44;54.44;98833.25;2079546;28;19928;-53
2022/06/04 02:44:26;;;;;;;;;;;;;;;26.45;54.56;98837.63;2083407;28;19936;-54
2022/06/04 02:45:28;;;;;;;;;;;;;;;26.44;54.58;98832.41;2084417;28;19936;-54
2022/06/04 02:46:32;;;;;;;;;;;;;;;26.45;54.52;98836.78;2083382;28;19929;-52
2022/06/04 02:47:37;;;;;;;;;;;;;;;26.43;54.57;98834.31;2079211;28;20359;-53
2022/06/04 02:48:40;;;;;;;;;;;;;;;26.44;54.30;98835.97;2083432;28;19932;-55
2022/06/04 02:49:45;;;;;;;;;;;;;;;26.44;54.14;98833.25;2084551;28;19936;-55
2022/06/04 02:50:49;;;;;;;;;;;;;;;26.44;53.95;98833.25;2085770;28;20956;-54
2022/06/04 02:51:51;;;;;;;;;;;;;;;26.44;54.18;98835.97;2083657;28;19944;-53
2022/06/04 02:52:55;;;;;;;;;;;;;;;26.44;54.49;98832.41;2083942;28;19928;-52
2022/06/04 02:53:56;;;;;;;;;;;;;;;26.44;54.48;98840.56;2085237;28;19929;-54
2022/06/04 02:55:00;;;;;;;;;;;;;;;26.44;54.25;98838.69;2085053;28;19936;-53
2022/06/04 02:56:02;;;;;;;;;;;;;;;26.45;54.46;98842.25;2081027;28;19936;-55
2022/06/04 02:57:05;;;;;;;;;;;;;;;26.44;54.42;98846.00;2084676;28;20473;-55
2022/06/04 02:58:08;;;;;;;;;;;;;;;26.44;54.13;98846.00;2086108;28;19928;-54
2022/06/04 02:59:14;;;;;;;;;;;;;;;26.43;54.26;98847.91;2084483;28;19933;-53
2022/06/04 03:00:17;;;;;;;;;;;;;;;26.41;54.40;98847.38;2084105;28;20054;-54
2022/06/04 03:01:20;;;;;;;;;;;;;;;26.44;54.15;98846.00;2084618;28;19983;-52
2022/06/04 03:02:21;;;;;;;;;;;;;;;26.43;54.12;98845.19;2083235;28;20408;-52
2022/06/04 03:03:23;;;;;;;;;;;;;;;26.43;54.61;98850.63;2084362;28;19936;-51
2022/06/04 03:04:24;;;;;;;;;;;;;;;26.44;54.19;98852.31;2083984;28;19935;-52
2022/06/04 03:05:27;;;;;;;;;;;;;;;26.43;54.22;98844.38;2084667;28;20421;-54
2022/06/04 03:06:30;;;;;;;;;;;;;;;26.42;54.47;98846.28;2082484;28;19990;-54
2022/06/04 03:07:32;;;;;;;;;;;;;;;26.42;54.10;98843.56;2083245;28;20977;-53
2022/06/04 03:08:35;;;;;;;;;;;;;;;26.41;54.43;98847.38;2084055;28;20020;-53
2022/06/04 03:09:38;;;;;;;;;;;;;;;26.43;54.16;98849.81;2085597;28;19935;-53
2022/06/04 03:10:39;;;;;;;;;;;;;;;26.41;54.35;98850.09;2085124;28;19932;-54
2022/06/04 03:11:42;;;;;;;;;;;;;;;26.41;54.33;98847.38;2085638;28;19928;-56
2022/06/04 03:12:43;;;;;;;;;;;;;;;26.41;54.43;98852.81;2086261;28;20287;-53
2022/06/04 03:13:45;;;;;;;;;;;;;;;26.40;54.65;98847.59;2085036;28;19929;-53
2022/06/04 03:14:48;;;;;;;;;;;;;;;26.41;54.60;98850.09;2081243;28;20997;-55
2022/06/04 03:15:50;;;;;;;;;;;;;;;26.40;54.23;98842.16;2084157;28;20541;-51
2022/06/04 03:16:51;;;;;;;;;;;;;;;26.41;54.14;98844.66;2084497;28;19981;-52
2022/06/04 03:17:53;;;;;;;;;;;;;;;26.41;54.39;98841.94;2084412;28;19990;-51
2022/06/04 03:18:54;;;;;;;;;;;;;;;26.41;54.58;98846.50;2084620;28;19929;-52
2022/06/04 03:19:56;;;;;;;;;;;;;;;26.41;54.46;98852.81;2084669;28;20294;-56
2022/06/04 03:20:57;;;;;;;;;;;;;;;26.41;54.59;98852.81;2083809;28;19928;-55
2022/06/04 03:21:59;;;;;;;;;;;;;;;26.41;54.38;98847.38;2083820;28;20044;-55
2022/06/04 03:23:01;;;;;;;;;;;;;;;26.40;54.08;98839.44;2082426;28;20283;-55
2022/06/04 03:24:02;;;;;;;;;;;;;;;26.39;54.62;98841.34;2085276;28;19935;-54
2022/06/04 03:25:04;;;;;;;;;;;;;;;26.39;54.45;98835.91;2083069;28;20016;-54
2022/06/04 03:26:05;;;;;;;;;;;;;;;26.41;54.15;98830.19;2082830;28;20374;-55
2022/06/04 03:27:07;;;;;;;;;;;;;;;26.41;54.45;98828.31;2082214;28;19928;-55
2022/06/04 03:28:08;;;;;;;;;;;;;;;26.40;54.14;98829.38;2082474;28;19929;-54
2022/06/04 03:29:09;;;;;;;;;;;;;;;26.41;54.46;98831.03;2081808;28;20361;-54
2022/06/04 03:30:12;;;;;;;;;;;;;;;26.40;54.11;98825.84;2083644;28;19933;-54
2022/06/04 03:31:13;;;;;;;;;;;;;;;26.38;54.11;98825.25;2080717;28;19935;-53
2022/06/04 03:32:14;;;;;;;;;;;;;;;26.39;54.45;98830.47;2083632;28;19929;-55
2022/06/04 03:33:16;;;;;;;;;;;;;;;26.40;54.29;98837.53;2082974;28;19928;-54
2022/06/04 03:34:17;;;;;;;;;;;;;;;26.40;54.60;98840.25;2080908;28;20379;-54
2022/06/04 03:35:18;;;;;;;;;;;;;;;26.39;54.31;98833.19;2083785;28;19928;-54
2022/06/04 03:36:21;;;;;;;;;;;;;;;26.40;54.12;98834.00;2083089;28;19936;-50
2022/06/04 03:37:22;;;;;;;;;;;;;;;26.39;54.21;98833.19;2082923;28;20043;-54
2022/06/04 03:38:23;;;;;;;;;;;;;;;26.40;54.61;98834.81;2084961;28;19929;-53
2022/06/04 03:39:24;;;;;;;;;;;;;;;26.38;54.50;98847.84;2082011;28;20371;-54
2022/06/04 03:40:26;;;;;;;;;;;;;;;26.39;54.50;98844.06;2084542;28;19932;-55
2022/06/04 03:41:26;;;;;;;;;;;;;;;26.40;54.11;98847.59;2082072;28;19928;-53
2022/06/04 03:42:28;;;;;;;;;;;;;;;26.40;54.40;98847.59;2080260;28;20024;-54
2022/06/04 03:43:29;;;;;;;;;;;;;;;26.40;54.36;98851.13;2082382;28;19929;-56
2022/06/04 03:44:30;;;;;;;;;;;;;;;26.41;54.47;98851.94;2083891;28;20020;-54
2022/06/04 03:45:33;;;;;;;;;;;;;;;26.39;54.61;98852.22;2083306;28;19932;-55
2022/06/04 03:46:34;;;;;;;;;;;;;;;26.39;54.72;98843.25;2084281;28;19932;-54
2022/06/04 03:47:36;;;;;;;;;;;;;;;26.38;54.65;98850.56;2082405;28;19936;-50
2022/06/04 03:48:37;;;;;;;;;;;;;;;26.39;54.62;98844.06;2085075;28;19928;-54
2022/06/04 03:49:39;;;;;;;;;;;;;;;26.38;54.61;98852.47;2082667;28;19929;-54
2022/06/04 03:50:40;;;;;;;;;;;;;;;26.38;54.26;98847.84;2082886;28;20416;-55
2022/06/04 03:51:41;;;;;;;;;;;;;;;26.38;54.39;98841.56;2082747;28;20023;-56
2022/06/04 03:52:42;;;;;;;;;;;;;;;26.38;54.35;98838.84;2082531;28;19952;-55
2022/06/04 03:53:44;;;;;;;;;;;;;;;26.39;54.48;98844.06;2083161;28;20390;-57
2022/06/04 03:54:53;;;;;;;;;;;;;;;26.37;54.52;98835.31;2083777;28;19928;-55
2022/06/04 03:55:55;;;;;;;;;;;;;;;26.37;54.62;98834.50;2083144;28;22027;-56
2022/06/04 03:58:12;;;;;;;;;;;;;;;26.39;54.22;98837.81;2081996;28;19929;-55
2022/06/04 03:59:12;;;;;;;;;;;;;;;26.37;54.41;98838.03;2081402;28;20345;-55
2022/06/04 04:00:16;;;;;;;;;;;;;;;26.38;54.56;98842.41;2082480;28;19929;-57
2022/06/04 04:01:20;;;;;;;;;;;;;;;26.37;54.40;98851.63;2084017;28;19936;-56
2022/06/04 04:02:20;;;;;;;;;;;;;;;26.38;54.19;98853.28;2082024;28;19925;-57
2022/06/04 04:03:22;;;;;;;;;;;;;;;26.39;54.33;98856.84;2083329;28;20154;-55
2022/06/04 04:04:22;;;;;;;;;;;;;;;26.38;54.29;98852.47;2085968;28;19940;-54
2022/06/04 04:05:26;;;;;;;;;;;;;;;26.37;54.52;98850.81;2083010;28;19928;-55
2022/06/04 04:06:28;;;;;;;;;;;;;;;26.36;54.46;98847.28;2082377;28;20027;-54
2022/06/04 04:07:29;;;;;;;;;;;;;;;26.38;54.21;98844.28;2079890;28;19929;-56
2022/06/04 04:08:31;;;;;;;;;;;;;;;26.38;54.57;98853.28;2082187;28;19944;-53
2022/06/04 04:09:31;;;;;;;;;;;;;;;26.37;54.14;98851.63;2082836;28;19991;-54
2022/06/04 04:10:33;;;;;;;;;;;;;;;26.37;54.36;98854.34;2083389;28;20512;-55
2022/06/04 04:11:34;;;;;;;;;;;;;;;26.38;54.18;98853.28;2082489;28;20898;-52
2022/06/04 04:12:36;;;;;;;;;;;;;;;26.36;54.70;98854.63;2083529;28;20959;-54
2022/06/04 04:13:36;;;;;;;;;;;;;;;26.36;54.40;98850.00;2082794;28;20560;-55
2022/06/04 04:14:38;;;;;;;;;;;;;;;26.37;54.18;98856.25;2082761;28;20008;-54
2022/06/04 04:15:39;;;;;;;;;;;;;;;26.37;54.57;98853.53;2083890;28;19928;-54
2022/06/04 04:16:42;;;;;;;;;;;;;;;26.37;54.41;98848.09;2080363;28;19935;-55
2022/06/04 04:17:43;;;;;;;;;;;;;;;26.35;54.31;98848.34;2083709;28;19928;-54
2022/06/04 04:18:44;;;;;;;;;;;;;;;26.34;54.23;98846.69;2084778;28;20552;-53
2022/06/04 04:19:45;;;;;;;;;;;;;;;26.35;54.44;98847.53;2085792;28;19928;-54
2022/06/04 04:20:48;;;;;;;;;;;;;;;26.36;54.35;98849.19;2084560;28;20904;-53
2022/06/04 04:21:48;;;;;;;;;;;;;;;26.35;54.26;98853.78;2085049;28;19932;-55
2022/06/04 04:22:50;;;;;;;;;;;;;;;26.35;54.63;98847.53;2083430;28;20647;-53
2022/06/04 04:23:52;;;;;;;;;;;;;;;26.35;54.52;98844.81;2084327;28;20338;-53
2022/06/04 04:24:54;;;;;;;;;;;;;;;26.36;54.60;98854.63;2081603;28;19969;-54
2022/06/04 04:25:55;;;;;;;;;;;;;;;26.35;54.48;98850.25;2082834;28;19928;-53
2022/06/04 04:26:56;;;;;;;;;;;;;;;26.35;54.59;98861.94;2083265;28;19972;-55
2022/06/04 04:27:58;;;;;;;;;;;;;;;26.35;54.41;98852.97;2083352;28;20567;-52
2022/06/04 04:28:59;;;;;;;;;;;;;;;26.35;54.31;98858.41;2082562;28;19929;-55
2022/06/04 04:30:01;;;;;;;;;;;;;;;26.34;54.34;98851.31;2082779;28;20023;-54
2022/06/04 04:31:02;;;;;;;;;;;;;;;26.35;54.13;98852.97;2082275;28;19933;-54
2022/06/04 04:32:06;;;;;;;;;;;;;;;26.35;54.30;98856.50;2083761;28;19955;-55
2022/06/04 04:33:06;;;;;;;;;;;;;;;26.36;54.79;98855.44;2084317;28;19936;-56
2022/06/04 04:34:08;;;;;;;;;;;;;;;26.35;54.57;98853.78;2085109;28;19935;-55
2022/06/04 04:35:12;;;;;;;;;;;;;;;26.35;54.60;98856.50;2085874;28;19932;-53
2022/06/04 04:36:13;;;;;;;;;;;;;;;26.34;54.52;98857.56;2084700;28;19964;-54
2022/06/04 04:37:14;;;;;;;;;;;;;;;26.37;54.33;98857.06;2085522;28;20402;-54
2022/06/04 04:38:18;;;;;;;;;;;;;;;26.35;54.22;98861.94;2085471;28;19978;-54
2022/06/04 04:39:18;;;;;;;;;;;;;;;26.36;54.24;98860.06;2079415;28;20887;-54
2022/06/04 04:40:21;;;;;;;;;;;;;;;26.37;54.51;98858.97;2086716;28;19929;-51
2022/06/04 04:41:21;;;;;;;;;;;;;;;26.34;54.25;98863.00;2084693;28;19928;-54
2022/06/04 04:42:24;;;;;;;;;;;;;;;26.34;54.72;98863.00;2085545;28;19929;-54
2022/06/04 04:43:24;;;;;;;;;;;;;;;26.34;54.41;98860.28;2084817;28;19929;-53
2022/06/04 04:44:26;;;;;;;;;;;;;;;26.33;54.25;98861.38;2084276;28;20313;-54
2022/06/04 04:45:27;;;;;;;;;;;;;;;26.35;54.34;98855.69;2083776;28;19929;-54
2022/06/04 04:46:29;;;;;;;;;;;;;;;26.34;54.49;98867.63;2084994;28;19990;-55
2022/06/04 04:47:32;;;;;;;;;;;;;;;26.34;54.57;98870.34;2083980;28;19983;-54
2022/06/04 04:48:34;;;;;;;;;;;;;;;26.35;54.59;98872.00;2081109;28;20882;-54
2022/06/04 04:49:35;;;;;;;;;;;;;;;26.35;54.73;98866.56;2085246;28;19929;-56
2022/06/04 04:50:38;;;;;;;;;;;;;;;26.36;54.73;98876.38;2085083;28;19936;-53
2022/06/04 04:51:39;;;;;;;;;;;;;;;26.36;54.91;98871.75;2085283;28;19936;-53
2022/06/04 04:52:40;;;;;;;;;;;;;;;26.34;54.71;98873.91;2084992;28;19929;-53
2022/06/04 04:53:41;;;;;;;;;;;;;;;26.36;54.66;98870.94;2085187;28;19928;-55
2022/06/04 04:54:43;;;;;;;;;;;;;;;26.35;54.59;98870.09;2084945;28;19937;-55
2022/06/04 04:55:45;;;;;;;;;;;;;;;26.35;54.71;98870.09;2085223;28;19929;-53
2022/06/04 04:56:47;;;;;;;;;;;;;;;26.34;54.90;98870.34;2081712;28;19975;-55
2022/06/04 04:57:48;;;;;;;;;;;;;;;26.33;54.55;98866.81;2084526;28;19936;-56
2022/06/04 04:58:50;;;;;;;;;;;;;;;26.30;54.57;98876.28;2084598;28;20042;-54
2022/06/04 04:59:50;;;;;;;;;;;;;;;26.30;54.71;98873.56;2085484;28;19935;-54
2022/06/04 05:00:52;;;;;;;;;;;;;;;26.30;54.79;98870.84;2084470;28;20016;-53
2022/06/04 05:01:53;;;;;;;;;;;;;;;26.34;54.65;98881.22;2085179;28;20903;-54
2022/06/04 05:02:56;;;;;;;;;;;;;;;26.34;55.08;98882.06;2083779;28;19929;-52
2022/06/04 05:03:57;;;;;;;;;;;;;;;26.33;54.76;98880.41;2084382;28;19928;-54
2022/06/04 05:04:59;;;;;;;;;;;;;;;26.31;54.52;98885.28;2081540;28;19935;-54
2022/06/04 05:06:00;;;;;;;;;;;;;;;26.33;54.93;98888.56;2085109;28;20291;-55
2022/06/04 05:07:02;;;;;;;;;;;;;;;26.30;54.68;98883.63;2083805;28;20062;-54
2022/06/04 05:08:03;;;;;;;;;;;;;;;26.29;54.71;98887.41;2084431;28;19929;-53
2022/06/04 05:09:04;;;;;;;;;;;;;;;26.29;54.60;98881.97;2084094;28;20519;-54
2022/06/04 05:10:06;;;;;;;;;;;;;;;26.32;54.60;98883.38;2085446;28;19929;-54
2022/06/04 05:11:08;;;;;;;;;;;;;;;26.30;54.62;98895.31;2085420;28;20435;-55
2022/06/04 05:12:09;;;;;;;;;;;;;;;26.29;54.83;98887.41;2085968;28;19999;-55
2022/06/04 05:13:11;;;;;;;;;;;;;;;26.28;54.84;98889.31;2084429;28;20959;-53
2022/06/04 05:14:11;;;;;;;;;;;;;;;26.31;55.13;98885.28;2082902;28;19936;-54
2022/06/04 05:15:13;;;;;;;;;;;;;;;26.29;55.06;98893.66;2084687;28;19935;-55
2022/06/04 05:16:14;;;;;;;;;;;;;;;26.29;54.75;98888.22;2085279;28;19929;-53
2022/06/04 05:17:15;;;;;;;;;;;;;;;26.31;54.41;98885.28;2085128;28;19975;-54
2022/06/04 05:18:17;;;;;;;;;;;;;;;26.30;55.02;98883.63;2084390;28;19928;-54
2022/06/04 05:19:19;;;;;;;;;;;;;;;26.31;54.99;98890.72;2085812;28;19928;-51
2022/06/04 05:20:19;;;;;;;;;;;;;;;26.31;54.78;98885.28;2086898;28;19929;-54
2022/06/04 05:21:22;;;;;;;;;;;;;;;26.29;54.53;98881.97;2086925;28;19929;-53
2022/06/04 05:22:23;;;;;;;;;;;;;;;26.30;54.49;98887.16;2086284;28;19932;-54
2022/06/04 05:23:25;;;;;;;;;;;;;;;26.28;54.49;98885.78;2084763;28;20820;-53
2022/06/04 05:24:26;;;;;;;;;;;;;;;26.31;54.76;98888.00;2087174;28;19928;-53
2022/06/04 05:25:28;;;;;;;;;;;;;;;26.31;54.88;98888.00;2087326;28;19972;-53
2022/06/04 05:26:28;;;;;;;;;;;;;;;26.29;54.49;98893.66;2082742;28;20015;-58
2022/06/04 05:27:30;;;;;;;;;;;;;;;26.33;54.32;98895.88;2085998;28;20051;-55
2022/06/04 05:28:30;;;;;;;;;;;;;;;26.29;55.05;98892.84;2086219;28;20046;-55
2022/06/04 05:29:33;;;;;;;;;;;;;;;26.30;54.94;98894.50;2087276;28;19929;-55
2022/06/04 05:30:33;;;;;;;;;;;;;;;26.28;55.10;98897.47;2087004;28;19929;-55
2022/06/04 05:31:35;;;;;;;;;;;;;;;26.29;54.72;98898.28;2085736;28;19934;-55
2022/06/04 05:32:35;;;;;;;;;;;;;;;26.28;54.72;98904.81;2086705;28;19932;-53
2022/06/04 05:33:38;;;;;;;;;;;;;;;26.30;54.86;98899.94;2086638;28;20410;-54
2022/06/04 05:34:39;;;;;;;;;;;;;;;26.27;54.76;98903.97;2087367;28;19928;-54
2022/06/04 05:35:40;;;;;;;;;;;;;;;26.29;54.69;98909.16;2083545;28;20025;-52
2022/06/04 05:36:42;;;;;;;;;;;;;;;26.29;54.88;98907.25;2086148;28;19928;-55
2022/06/04 05:37:43;;;;;;;;;;;;;;;26.27;55.04;98908.56;2086469;28;20898;-54